TimePDT,TemperatureF,Dew PointF,Humidity,Sea Level PressureIn,VisibilityMPH,Wind Direction,Wind SpeedMPH,Gust SpeedMPH,PrecipitationIn,Events,Conditions,WindDirDegrees,DateUTC
12:53 AM,59.0,57.0,93,30.05,8.0,SSE,3.5,-,N/A,,Overcast,160,2011-10-21 07:53:00
1:42 AM,59.0,57.2,94,30.05,9.0,Calm,Calm,-,N/A,,Overcast,0,2011-10-21 08:42:00
1:53 AM,60.1,55.9,86,30.05,10.0,Calm,Calm,-,N/A,,Overcast,0,2011-10-21 08:53:00
2:53 AM,60.1,55.0,83,30.05,10.0,ESE,4.6,-,N/A,,Overcast,120,2011-10-21 09:53:00
3:53 AM,60.1,55.9,86,30.04,10.0,Calm,Calm,-,N/A,,Overcast,0,2011-10-21 10:53:00
4:53 AM,59.0,55.0,87,30.05,9.0,Calm,Calm,-,N/A,,Overcast,0,2011-10-21 11:53:00
5:53 AM,59.0,55.0,87,30.05,10.0,West,3.5,-,N/A,,Overcast,280,2011-10-21 12:53:00
6:53 AM,59.0,55.0,87,30.06,8.0,North,3.5,-,N/A,,Overcast,350,2011-10-21 13:53:00
7:53 AM,59.0,55.0,87,30.07,10.0,North,3.5,-,N/A,,Overcast,350,2011-10-21 14:53:00
8:53 AM,59.0,55.0,87,30.08,10.0,NNW,3.5,-,N/A,,Overcast,330,2011-10-21 15:53:00
9:53 AM,60.1,55.0,83,30.09,9.0,Calm,Calm,-,N/A,,Overcast,0,2011-10-21 16:53:00
10:53 AM,60.1,55.0,83,30.10,6.0,Calm,Calm,-,N/A,,Overcast,0,2011-10-21 17:53:00
11:53 AM,61.0,55.0,81,30.09,6.0,SW,3.5,-,N/A,,Overcast,230,2011-10-21 18:53:00
12:53 PM,61.0,55.0,81,30.08,9.0,SW,4.6,-,N/A,,Overcast,220,2011-10-21 19:53:00
1:53 PM,61.0,55.0,81,30.06,8.0,SW,4.6,-,N/A,,Overcast,230,2011-10-21 20:53:00
2:53 PM,60.1,55.0,83,30.04,8.0,West,5.8,-,N/A,,Overcast,260,2011-10-21 21:53:00
3:53 PM,60.1,55.0,83,30.03,8.0,West,5.8,-,N/A,,Overcast,260,2011-10-21 22:53:00
4:53 PM,60.1,55.9,86,30.01,8.0,WSW,4.6,-,N/A,,Overcast,240,2011-10-21 23:53:00
4:58 PM,59.0,55.4,88,30.01,8.0,SW,3.5,-,N/A,,Overcast,230,2011-10-21 23:58:00
5:53 PM,59.0,55.9,90,30.01,7.0,West,4.6,-,N/A,,Overcast,260,2011-10-22 00:53:00
6:53 PM,57.9,55.9,93,30.01,7.0,Calm,Calm,-,N/A,,Overcast,0,2011-10-22 01:53:00
7:53 PM,57.9,55.9,93,30.02,5.0,Calm,Calm,-,N/A,,Overcast,0,2011-10-22 02:53:00
8:53 PM,57.9,55.9,93,30.03,5.0,East,5.8,-,N/A,,Overcast,100,2011-10-22 03:53:00
9:07 PM,57.2,55.4,94,30.03,4.0,East,3.5,-,N/A,,Overcast,100,2011-10-22 04:07:00
9:53 PM,57.9,55.9,93,30.03,4.0,SE,4.6,-,N/A,,Overcast,130,2011-10-22 04:53:00
10:08 PM,57.2,55.4,94,30.04,4.0,East,5.8,-,N/A,,Overcast,100,2011-10-22 05:08:00
10:53 PM,57.9,55.9,93,30.04,4.0,East,5.8,-,N/A,,Overcast,90,2011-10-22 05:53:00
11:36 PM,57.2,57.2,100,30.04,3.0,East,6.9,-,N/A,,Overcast,100,2011-10-22 06:36:00
11:53 PM,57.2,55.4,94,30.04,3.0,ESE,5.8,-,N/A,,Overcast,120,2011-10-22 06:53:00